createdAt,value
2022-11-16T00:01:31.743Z,28.07
2022-11-16T00:04:01.882Z,32.00
2022-11-16T00:06:36.412Z,26.60
2022-11-16T00:09:28.687Z,28.80
2022-11-16T00:12:03.199Z,32.40
2022-11-16T00:14:34.316Z,26.12
2022-11-16T00:17:04.408Z,30.13
2022-11-16T00:19:33.155Z,32.63
2022-11-16T00:22:05.022Z,24.83
2022-11-16T00:24:34.219Z,28.67
2022-11-16T00:27:06.207Z,29.20
2022-11-16T00:29:42.071Z,33.53
2022-11-16T00:32:12.784Z,30.37
2022-11-16T00:34:41.865Z,28.90
2022-11-16T00:37:13.588Z,28.67
2022-11-16T00:39:54.561Z,27.93
2022-11-16T00:42:23.223Z,26.80
2022-11-16T00:44:52.531Z,28.27
2022-11-16T00:47:22.013Z,29.57
2022-11-16T00:49:55.363Z,26.77
2022-11-16T00:52:25.145Z,26.12
2022-11-16T00:54:54.801Z,25.53
2022-11-16T00:57:26.785Z,24.87
2022-11-16T00:59:56.243Z,24.63
2022-11-16T01:02:25.418Z,26.50
2022-11-16T01:04:54.216Z,25.30
2022-11-16T01:07:26.143Z,24.33
2022-11-16T01:09:54.870Z,26.20
2022-11-16T01:12:23.602Z,25.70
2022-11-16T01:14:52.244Z,25.03
2022-11-16T01:17:21.007Z,28.57
2022-11-16T01:19:50.937Z,26.23
2022-11-16T01:22:20.248Z,23.97
2022-11-16T01:24:51.123Z,23.70
2022-11-16T01:27:19.943Z,28.73
2022-11-16T01:29:49.687Z,26.57
2022-11-16T01:32:18.982Z,22.00
2022-11-16T01:34:50.283Z,25.90
2022-11-16T01:37:30.175Z,23.57
2022-11-16T01:39:59.021Z,24.70
2022-11-16T01:42:33.663Z,21.53
2022-11-16T01:45:22.963Z,23.70
2022-11-16T01:47:55.250Z,20.10
2022-11-16T01:50:27.827Z,24.02
2022-11-16T01:53:02.331Z,21.70
2022-11-16T01:55:40.283Z,23.60
2022-11-16T01:58:22.859Z,20.03
2022-11-16T02:00:57.677Z,21.30
2022-11-16T02:03:31.470Z,21.37
2022-11-16T02:06:24.789Z,20.40
2022-11-16T02:09:34.597Z,20.73
2022-11-16T02:12:22.644Z,20.93
2022-11-16T02:15:04.339Z,22.20
2022-11-16T02:17:47.196Z,21.03
2022-11-16T02:20:51.965Z,19.00
2022-11-16T02:23:45.678Z,17.57
2022-11-16T02:26:29.038Z,19.77
2022-11-16T02:29:21.333Z,22.20
2022-11-16T02:31:59.334Z,21.63
2022-11-16T02:34:33.898Z,18.77
2022-11-16T02:37:07.277Z,19.30
2022-11-16T02:39:38.949Z,25.73
2022-11-16T02:42:13.796Z,17.97
2022-11-16T02:44:56.139Z,18.13
2022-11-16T02:47:35.417Z,19.63
2022-11-16T02:50:15.725Z,17.93
2022-11-16T02:52:45.029Z,16.30
2022-11-16T02:55:15.813Z,21.10
2022-11-16T02:57:54.099Z,19.20
2022-11-16T03:00:33.443Z,17.00
2022-11-16T03:03:19.088Z,17.43
2022-11-16T03:05:56.364Z,16.97
2022-11-16T03:08:30.020Z,17.20
2022-11-16T03:11:22.395Z,20.83
2022-11-16T03:13:55.531Z,18.20
2022-11-16T03:16:34.837Z,21.50
2022-11-16T03:19:11.088Z,19.77
2022-11-16T03:21:47.154Z,16.63
2022-11-16T03:24:17.614Z,16.03
2022-11-16T03:26:54.386Z,18.37
2022-11-16T03:29:30.802Z,15.43
2022-11-16T03:32:12.401Z,16.60
2022-11-16T03:34:44.668Z,20.17
2022-11-16T03:37:14.478Z,21.30
2022-11-16T03:39:44.488Z,18.50
2022-11-16T03:42:14.235Z,19.00
2022-11-16T03:44:48.143Z,20.07
2022-11-16T03:47:19.089Z,23.07
2022-11-16T03:49:48.386Z,20.67
2022-11-16T03:52:18.999Z,22.53
2022-11-16T03:54:50.664Z,19.87
2022-11-16T03:57:19.571Z,18.60
2022-11-16T03:59:53.647Z,17.70
2022-11-16T04:02:22.738Z,20.83
2022-11-16T04:05:24.113Z,24.40
2022-11-16T04:08:11.022Z,21.20
2022-11-16T04:11:02.834Z,22.27
2022-11-16T04:13:56.406Z,21.03
2022-11-16T04:16:47.075Z,18.33
2022-11-16T04:19:34.643Z,21.15
2022-11-16T04:22:24.898Z,20.77
2022-11-16T04:25:03.648Z,22.70
2022-11-16T04:27:54.364Z,24.10
2022-11-16T04:30:46.045Z,22.33
2022-11-16T04:33:36.380Z,23.07
2022-11-16T04:36:25.039Z,24.07
2022-11-16T04:38:53.895Z,23.87
2022-11-16T04:41:43.848Z,22.93
2022-11-16T04:44:12.657Z,24.27
2022-11-16T04:47:12.040Z,25.20
2022-11-16T04:49:43.597Z,28.10
2022-11-16T04:52:15.727Z,23.57
2022-11-16T04:54:47.422Z,23.37
2022-11-16T04:57:18.938Z,26.73
2022-11-16T04:59:47.992Z,28.13
2022-11-16T05:02:20.464Z,26.30
2022-11-16T05:04:52.956Z,27.50
2022-11-16T05:07:22.803Z,26.07
2022-11-16T05:09:53.440Z,26.70
2022-11-16T05:12:27.692Z,26.20
2022-11-16T05:15:02.488Z,27.37
2022-11-16T05:17:33.824Z,26.13
2022-11-16T05:20:21.464Z,27.57
2022-11-16T05:22:58.482Z,26.07
2022-11-16T05:25:35.381Z,26.70
2022-11-16T05:28:08.440Z,30.47
2022-11-16T05:30:40.475Z,28.50
2022-11-16T05:33:09.467Z,29.90
2022-11-16T05:35:41.231Z,27.97
2022-11-16T05:38:10.183Z,27.93
2022-11-16T05:40:56.214Z,21.83
2022-11-16T05:43:25.220Z,28.90
2022-11-16T05:46:03.987Z,28.53
2022-11-16T05:48:39.329Z,29.93
2022-11-16T05:51:08.679Z,28.47
2022-11-16T05:53:37.685Z,29.87
2022-11-16T05:56:08.684Z,30.50
2022-11-16T05:58:40.423Z,27.87
2022-11-16T06:01:09.910Z,30.13
2022-11-16T06:03:39.220Z,31.63
2022-11-16T06:09:14.078Z,30.87
2022-11-16T06:11:43.222Z,32.33
2022-11-16T06:14:12.029Z,29.90
2022-11-16T06:16:50.807Z,30.50
2022-11-16T06:19:22.597Z,29.30
2022-11-16T06:21:53.964Z,31.53
2022-11-16T06:24:23.305Z,30.07
2022-11-16T06:26:53.578Z,32.17
2022-11-16T06:29:24.112Z,35.20
2022-11-16T06:31:53.214Z,32.13
2022-11-16T06:34:26.171Z,32.13
2022-11-16T06:36:57.442Z,31.97
2022-11-16T06:39:34.523Z,34.40
2022-11-16T06:42:05.365Z,35.75
2022-11-16T06:44:36.532Z,23.90
2022-11-16T06:47:05.851Z,34.20
2022-11-16T06:49:35.145Z,28.77
2022-11-16T06:52:07.947Z,34.43
2022-11-16T06:54:36.631Z,32.30
2022-11-16T06:57:05.714Z,28.30
2022-11-16T06:59:37.362Z,24.57
2022-11-16T07:02:10.954Z,25.87
2022-11-16T07:04:40.645Z,33.73
2022-11-16T07:07:10.370Z,30.17
2022-11-16T07:09:39.075Z,39.33
2022-11-16T07:12:09.379Z,35.40
2022-11-16T07:14:39.520Z,37.53
2022-11-16T07:17:13.104Z,36.70
2022-11-16T07:19:42.114Z,26.50
2022-11-16T07:22:12.912Z,25.23
2022-11-16T07:24:41.913Z,28.60
2022-11-16T07:27:20.684Z,24.57
2022-11-16T07:29:54.192Z,23.77
2022-11-16T07:32:43.186Z,29.30
2022-11-16T07:35:17.085Z,27.33
2022-11-16T07:37:45.931Z,28.17
2022-11-16T07:40:16.131Z,24.13
2022-11-16T07:42:49.141Z,28.13
2022-11-16T07:45:40.001Z,26.27
2022-11-16T07:48:11.374Z,31.53
2022-11-16T07:51:02.725Z,29.00
2022-11-16T07:53:36.020Z,29.03
2022-11-16T07:56:05.731Z,23.67
2022-11-16T07:58:36.312Z,26.63
2022-11-16T08:01:08.125Z,28.80
2022-11-16T08:03:37.632Z,27.33
2022-11-16T08:06:12.393Z,26.80
2022-11-16T08:08:41.213Z,24.65
2022-11-16T08:11:14.366Z,24.10
2022-11-16T08:16:15.140Z,23.40
2022-11-16T08:18:48.698Z,25.87
2022-11-16T08:21:23.831Z,27.97
2022-11-16T08:23:58.517Z,26.33
2022-11-16T08:26:34.895Z,22.53
2022-11-16T08:29:07.880Z,23.93
2022-11-16T08:31:38.817Z,23.40
2022-11-16T08:34:16.447Z,25.10
2022-11-16T08:36:48.739Z,27.30
2022-11-16T08:39:20.144Z,26.40
2022-11-16T08:42:10.740Z,24.40
2022-11-16T08:44:39.766Z,29.33
2022-11-16T08:47:12.324Z,26.87
2022-11-16T08:49:50.379Z,28.93
2022-11-16T08:52:25.679Z,28.07
2022-11-16T08:54:56.221Z,25.83
2022-11-16T08:57:25.093Z,26.17
2022-11-16T08:59:58.040Z,32.67
2022-11-16T09:02:26.742Z,26.70
2022-11-16T09:04:55.498Z,27.70
2022-11-16T09:07:24.336Z,28.90
2022-11-16T09:10:10.394Z,25.60
2022-11-16T09:12:39.649Z,24.67
2022-11-16T09:15:16.934Z,20.63
2022-11-16T09:17:45.738Z,22.13
2022-11-16T09:20:14.825Z,30.47
2022-11-16T09:22:44.923Z,19.50
2022-11-16T09:25:14.003Z,23.10
2022-11-16T09:27:43.787Z,18.93
2022-11-16T09:30:14.389Z,22.43
2022-11-16T09:32:43.608Z,21.37
2022-11-16T09:35:17.028Z,19.90
2022-11-16T09:37:46.145Z,20.60
2022-11-16T09:40:18.174Z,19.95
2022-11-16T09:43:01.718Z,18.60
2022-11-16T09:45:41.318Z,17.40
2022-11-16T09:48:17.828Z,17.53
2022-11-16T09:50:58.132Z,15.83
2022-11-16T09:53:35.363Z,12.97
2022-11-16T09:56:07.593Z,17.67
2022-11-16T09:58:49.640Z,16.33
2022-11-16T10:01:37.103Z,14.00
2022-11-16T10:04:11.547Z,11.57
2022-11-16T10:06:54.078Z,14.27
2022-11-16T10:09:23.813Z,13.67
2022-11-16T10:12:10.370Z,14.03
2022-11-16T10:15:15.952Z,12.03
2022-11-16T10:18:17.388Z,11.00
2022-11-16T10:21:11.549Z,13.23
2022-11-16T10:23:58.422Z,12.43
2022-11-16T10:26:47.967Z,11.43
2022-11-16T10:29:29.815Z,12.33
2022-11-16T10:32:17.837Z,12.67
2022-11-16T10:34:52.878Z,13.50
2022-11-16T10:37:24.358Z,10.40
2022-11-16T10:39:54.604Z,11.67
2022-11-16T10:42:29.225Z,14.00
2022-11-16T10:45:12.559Z,16.27
2022-11-16T10:47:49.820Z,11.60
2022-11-16T10:50:34.888Z,13.47
2022-11-16T10:53:04.201Z,12.70
2022-11-16T10:55:34.353Z,12.23
2022-11-16T10:58:17.535Z,12.50
2022-11-16T11:00:51.158Z,11.77
2022-11-16T11:03:31.791Z,11.10
2022-11-16T11:06:00.951Z,11.07
2022-11-16T11:08:31.018Z,11.67
2022-11-16T11:11:24.330Z,10.50
2022-11-16T11:14:18.347Z,13.37
2022-11-16T11:16:54.935Z,10.33
2022-11-16T11:19:29.152Z,12.33
2022-11-16T11:24:44.745Z,8.87
2022-11-16T11:27:21.156Z,11.33
2022-11-16T11:29:54.619Z,11.40
2022-11-16T11:32:30.135Z,12.80
2022-11-16T11:35:00.581Z,11.03
2022-11-16T11:37:33.486Z,10.33
2022-11-16T11:40:32.369Z,10.27
2022-11-16T11:43:21.016Z,9.37
2022-11-16T11:45:54.926Z,9.93
2022-11-16T11:48:41.503Z,12.97
2022-11-16T11:51:21.297Z,10.13
2022-11-16T11:53:56.510Z,8.20
2022-11-16T11:56:26.942Z,9.43
2022-11-16T11:58:59.034Z,11.30
2022-11-16T12:02:01.791Z,7.40
2022-11-16T12:05:01.601Z,8.17
2022-11-16T12:07:47.178Z,9.70
2022-11-16T12:10:24.875Z,8.30
2022-11-16T12:13:15.164Z,8.67
2022-11-16T12:15:58.846Z,7.83
2022-11-16T12:18:45.397Z,6.90
2022-11-16T12:21:24.369Z,7.27
2022-11-16T12:24:11.091Z,7.43
2022-11-16T12:26:58.163Z,7.23
2022-11-16T12:29:33.814Z,6.47
2022-11-16T12:32:30.896Z,9.00
2022-11-16T12:35:16.801Z,5.13
2022-11-16T12:37:50.296Z,5.53
2022-11-16T12:40:35.701Z,6.30
2022-11-16T12:43:16.447Z,4.60
2022-11-16T12:46:06.341Z,3.90
2022-11-16T12:49:10.860Z,5.63
2022-11-16T12:51:56.549Z,5.90
2022-11-16T12:55:04.304Z,5.53
2022-11-16T12:57:42.787Z,3.70
2022-11-16T13:00:14.200Z,8.27
2022-11-16T13:03:12.826Z,3.60
2022-11-16T13:05:50.610Z,4.30
2022-11-16T13:08:35.022Z,4.15
2022-11-16T13:11:13.779Z,5.47
2022-11-16T13:13:49.649Z,3.90
2022-11-16T13:16:38.628Z,5.60
2022-11-16T13:19:12.881Z,3.67
2022-11-16T13:21:52.728Z,4.70
2022-11-16T13:24:32.906Z,4.13
2022-11-16T13:27:23.008Z,2.90
2022-11-16T13:30:00.613Z,4.50
2022-11-16T13:32:43.534Z,5.60
2022-11-16T13:35:16.776Z,6.45
2022-11-16T13:37:47.749Z,5.20
2022-11-16T13:40:26.584Z,5.50
2022-11-16T13:43:16.734Z,6.67
2022-11-16T13:45:56.786Z,5.20
2022-11-16T13:48:31.915Z,5.20
2022-11-16T13:51:04.005Z,4.90
2022-11-16T13:54:43.035Z,5.63
2022-11-16T13:56:46.526Z,5.73
2022-11-16T13:59:23.657Z,5.87
2022-11-16T14:02:01.108Z,5.23
2022-11-16T14:04:42.264Z,6.23
2022-11-16T14:07:32.829Z,5.97
2022-11-16T14:10:05.626Z,6.17
2022-11-16T14:12:58.328Z,5.47
2022-11-16T14:15:29.974Z,6.13
2022-11-16T14:18:24.460Z,7.77
2022-11-16T14:21:03.684Z,7.65
2022-11-16T14:23:48.468Z,6.10
2022-11-16T14:26:25.030Z,6.73
2022-11-16T14:29:28.036Z,9.40
2022-11-16T14:32:03.464Z,7.20
2022-11-16T14:34:39.927Z,8.93
2022-11-16T14:37:13.582Z,7.40
2022-11-16T14:39:44.313Z,7.40
2022-11-16T14:42:24.017Z,5.93
2022-11-16T14:45:00.430Z,7.00
2022-11-16T14:47:34.122Z,7.37
2022-11-16T14:50:05.673Z,6.33
2022-11-16T14:52:39.003Z,10.40
2022-11-16T14:55:16.492Z,9.33
2022-11-16T14:57:45.394Z,9.43
2022-11-16T15:00:21.818Z,8.50
2022-11-16T15:03:02.388Z,9.33
2022-11-16T15:05:38.577Z,10.50
2022-11-16T15:08:18.812Z,9.23
2022-11-16T15:10:52.364Z,9.97
2022-11-16T15:13:24.223Z,12.77
2022-11-16T15:16:14.594Z,10.83
2022-11-16T15:19:05.233Z,13.43
2022-11-16T15:21:34.806Z,9.47
2022-11-16T15:27:09.595Z,9.17
2022-11-16T15:29:49.252Z,7.17
2022-11-16T15:32:21.918Z,8.47
2022-11-16T15:34:54.329Z,8.07
2022-11-16T15:37:32.219Z,10.33
2022-11-16T15:40:04.828Z,11.83
2022-11-16T15:42:34.136Z,10.67
2022-11-16T15:45:15.489Z,10.10
2022-11-16T15:47:53.543Z,10.10
2022-11-16T15:50:24.644Z,8.73
2022-11-16T15:52:55.580Z,6.73
2022-11-16T15:55:32.684Z,7.53
2022-11-16T15:58:05.624Z,9.50
2022-11-16T16:00:39.215Z,11.33
2022-11-16T16:03:20.239Z,10.07
2022-11-16T16:05:49.640Z,9.53
2022-11-16T16:08:36.612Z,8.57
2022-11-16T16:11:10.132Z,9.70
2022-11-16T16:13:41.490Z,8.93
2022-11-16T16:16:37.306Z,9.90
2022-11-16T16:19:22.562Z,8.67
2022-11-16T16:21:52.897Z,7.70
2022-11-16T16:24:43.674Z,7.00
2022-11-16T16:27:17.631Z,7.87
2022-11-16T16:29:47.906Z,10.80
2022-11-16T16:32:26.281Z,8.27
2022-11-16T16:35:02.096Z,7.83
2022-11-16T16:37:33.092Z,6.73
2022-11-16T16:40:03.861Z,7.17
2022-11-16T16:42:33.032Z,6.17
2022-11-16T16:45:02.162Z,7.47
2022-11-16T16:47:32.653Z,12.93
2022-11-16T16:50:03.528Z,6.87
2022-11-16T16:52:33.829Z,7.77
2022-11-16T16:55:02.630Z,11.50
2022-11-16T16:57:31.343Z,8.67
2022-11-16T17:00:02.972Z,6.40
2022-11-16T17:02:31.818Z,7.13
2022-11-16T17:05:00.795Z,6.60
2022-11-16T17:07:30.121Z,8.10
2022-11-16T17:10:00.363Z,7.77
2022-11-16T17:12:30.562Z,8.17
2022-11-16T17:15:00.472Z,9.37
2022-11-16T17:17:29.140Z,7.13
2022-11-16T17:20:00.372Z,5.93
2022-11-16T17:22:29.138Z,6.10
2022-11-16T17:25:01.367Z,10.37
2022-11-16T17:27:31.733Z,9.57
2022-11-16T17:30:00.587Z,8.37
2022-11-16T17:32:30.587Z,7.43
2022-11-16T17:35:00.638Z,10.87
2022-11-16T17:37:29.655Z,8.63
2022-11-16T17:39:59.615Z,6.73
2022-11-16T17:42:29.741Z,10.70
2022-11-16T17:45:00.958Z,12.30
2022-11-16T17:47:32.455Z,5.97
2022-11-16T17:50:02.981Z,7.73
2022-11-16T17:52:33.444Z,6.23
2022-11-16T17:55:02.172Z,6.13
2022-11-16T17:57:30.914Z,6.90
2022-11-16T18:00:02.617Z,6.77
2022-11-16T18:05:02.024Z,6.43
2022-11-16T18:07:33.674Z,6.60
2022-11-16T18:10:05.216Z,6.00
2022-11-16T18:12:38.040Z,6.20
2022-11-16T18:15:28.021Z,4.90
2022-11-16T18:18:02.187Z,4.43
2022-11-16T18:20:45.643Z,6.23
2022-11-16T18:23:16.673Z,6.40
2022-11-16T18:25:45.866Z,8.30
2022-11-16T18:28:18.119Z,6.47
2022-11-16T18:30:48.494Z,6.20
2022-11-16T18:33:18.216Z,6.13
2022-11-16T18:35:46.813Z,7.35
2022-11-16T18:38:18.211Z,7.97
2022-11-16T18:41:04.350Z,8.67
2022-11-16T18:43:35.890Z,6.40
2022-11-16T18:46:06.444Z,5.13
2022-11-16T18:48:44.660Z,6.57
2022-11-16T18:51:16.959Z,9.10
2022-11-16T18:53:45.773Z,6.80
2022-11-16T18:56:16.911Z,6.10
2022-11-16T18:58:56.076Z,9.03
2022-11-16T19:01:46.942Z,6.23
2022-11-16T19:04:16.081Z,6.37
2022-11-16T19:06:46.987Z,4.83
2022-11-16T19:09:18.487Z,6.22
2022-11-16T19:11:47.338Z,5.90
2022-11-16T19:14:16.496Z,5.33
2022-11-16T19:16:54.160Z,4.77
2022-11-16T19:19:30.071Z,5.53
2022-11-16T19:22:02.341Z,6.17
2022-11-16T19:24:37.064Z,5.37
2022-11-16T19:27:06.002Z,6.70
2022-11-16T19:29:40.499Z,5.60
2022-11-16T19:32:11.055Z,4.73
2022-11-16T19:34:39.834Z,5.13
2022-11-16T19:37:11.848Z,5.73
2022-11-16T19:39:44.572Z,7.93
2022-11-16T19:42:16.840Z,6.37
2022-11-16T19:44:47.297Z,6.57
2022-11-16T19:47:18.415Z,8.47
2022-11-16T19:49:51.886Z,7.17
2022-11-16T19:52:23.862Z,8.13
2022-11-16T19:54:52.856Z,6.73
2022-11-16T19:57:21.934Z,6.87
2022-11-16T19:59:50.833Z,7.17
2022-11-16T20:02:19.995Z,9.13
2022-11-16T20:04:54.056Z,7.35
2022-11-16T20:09:53.563Z,7.83
2022-11-16T20:12:23.032Z,7.90
2022-11-16T20:14:54.672Z,9.37
2022-11-16T20:20:12.906Z,9.07
2022-11-16T20:22:43.472Z,8.53
2022-11-16T20:25:12.341Z,8.43
2022-11-16T20:27:44.179Z,8.40
2022-11-16T20:30:17.167Z,9.97
2022-11-16T20:32:45.911Z,9.90
2022-11-16T20:35:20.198Z,9.27
2022-11-16T20:37:48.928Z,8.67
2022-11-16T20:40:18.088Z,9.30
2022-11-16T20:42:48.295Z,9.20
2022-11-16T20:45:17.476Z,8.80
2022-11-16T20:47:47.251Z,11.10
2022-11-16T20:50:19.192Z,10.73
2022-11-16T20:52:52.676Z,10.60
2022-11-16T20:55:21.683Z,10.17
2022-11-16T20:57:53.917Z,12.43
2022-11-16T21:00:26.071Z,13.90
2022-11-16T21:02:55.251Z,10.23
2022-11-16T21:05:25.827Z,9.70
2022-11-16T21:07:54.438Z,11.97
2022-11-16T21:10:23.334Z,12.77
2022-11-16T21:13:11.760Z,11.83
2022-11-16T21:15:54.856Z,13.63
2022-11-16T21:18:29.324Z,10.13
2022-11-16T21:21:04.413Z,14.07
2022-11-16T21:23:35.872Z,13.70
2022-11-16T21:26:06.807Z,14.17
2022-11-16T21:28:39.553Z,13.47
2022-11-16T21:31:15.653Z,16.00
2022-11-16T21:33:47.309Z,13.40
2022-11-16T21:36:18.560Z,17.77
2022-11-16T21:38:48.814Z,12.80
2022-11-16T21:41:19.794Z,13.03
2022-11-16T21:43:52.266Z,13.40
2022-11-16T21:46:32.074Z,15.83
2022-11-16T21:49:07.333Z,15.47
2022-11-16T21:51:36.253Z,14.80
2022-11-16T21:54:05.483Z,13.45
2022-11-16T21:56:36.813Z,14.90
2022-11-16T21:59:08.294Z,12.50
2022-11-16T22:01:52.847Z,18.43
2022-11-16T22:04:40.721Z,12.33
2022-11-16T22:07:36.168Z,14.60
2022-11-16T22:10:10.641Z,12.70
2022-11-16T22:15:22.161Z,11.97
2022-11-16T22:17:51.924Z,9.33
2022-11-16T22:20:20.814Z,11.20
2022-11-16T22:22:52.977Z,12.00
2022-11-16T22:25:22.535Z,9.80
2022-11-16T22:28:20.151Z,13.33
2022-11-16T22:30:40.667Z,10.90
2022-11-16T22:33:09.647Z,10.40
2022-11-16T22:35:38.378Z,9.90
2022-11-16T22:38:07.115Z,10.37
2022-11-16T22:43:22.986Z,9.37
2022-11-16T22:45:51.968Z,10.93
2022-11-16T22:48:21.242Z,7.97
2022-11-16T22:50:50.841Z,10.50
2022-11-16T22:53:21.309Z,8.47
2022-11-16T22:55:53.327Z,8.20
2022-11-16T22:58:21.955Z,10.17
2022-11-16T23:00:52.493Z,11.17
2022-11-16T23:03:24.148Z,8.13
2022-11-16T23:05:52.937Z,7.37
2022-11-16T23:08:24.297Z,6.63
2022-11-16T23:11:22.041Z,7.70
2022-11-16T23:14:12.190Z,7.17
2022-11-16T23:16:42.014Z,6.17
2022-11-16T23:19:27.928Z,8.03
2022-11-16T23:22:16.651Z,8.27
2022-11-16T23:25:05.984Z,7.03
2022-11-16T23:27:40.797Z,7.40
2022-11-16T23:30:13.771Z,7.63
2022-11-16T23:32:44.990Z,7.27
2022-11-16T23:35:15.377Z,7.73
2022-11-16T23:38:00.691Z,7.00
2022-11-16T23:40:31.018Z,6.27
2022-11-16T23:43:21.150Z,8.55
2022-11-16T23:45:50.201Z,7.47
2022-11-16T23:48:20.733Z,5.77
2022-11-16T23:50:49.408Z,6.10
2022-11-16T23:53:18.186Z,7.83
2022-11-16T23:55:47.131Z,5.70
2022-11-16T23:58:17.637Z,8.70
